Fort Eustis, Virginia
Current Conditions -  °F | °C
As of 6:58 PM on Friday 21 Nov 2014 (Local Time) from KFAF Reporting Station
Clear Clear  
Wind Chill: 34°   Ceiling: Unl
Heat Index: 34°   Visibility: 10mi
Dew Point: 12°   Wind: 3mph
Humidity: 40%   Direction: 40°NE
Pressure: 30.53"   Gusts: NA
Location:  37.13°N, 76.61°W
Report Text: KFAF 212358Z AUTO 04003KT 10SM CLR 01/M11 A3053 RMK AO2 SLP342 T00131109 10058 20009 52020 $
Loading
Personal Weather Stations






























Interactive Weather Map New forecast layout! Learn more

10-Day Weather Forecast

Advertisements
Track Severe Weather on mobile